KTPH/TPH METAR and TAF weather

Enter ICAO airport designator
Station Type Date Time Source
KTPH METAR 2020/04/09 10:32 UTC NOAA

KTPH 091032Z AUTO 16004KT 1SM -SN BR VV010 00/00 A3000 RMK AO2 P0002 T00000000


Station Type Date Time Source
KTPH Decoded METAR 2020/04/09 10:32 UTC NOAA

TONOPAH AIRPORT, NV, United States (KTPH) 38-02N 117-05W 1652M
Apr 09, 2020 - 06:32 AM EDT / 2020.04.09 1032 UTC
Wind: from the SSE (160 degrees) at 5 MPH (4 KT):0
Visibility: 1 mile(s):0
Sky conditions: obscured
Weather: light snow; mist
Precipitation last hour: 0.02 inches
Temperature: 32.0 F (0.0 C)
Windchill: 26 F (-3 C):1
Dew Point: 32.0 F (0.0 C)
Relative Humidity: 100%
Pressure (altimeter): 30 in. Hg (1015 hPa)
ob: KTPH 091032Z AUTO 16004KT 1SM -SN BR VV010 00/00 A3000 RMK AO2 P0002 T00000000
cycle: 10

Station Type Date Time Source
KTPH TAF 2020/04/09 09:18 UTC NOAA

TAF
AMD KTPH 090916Z 0909/1006 VRB06KT 4SM -SN BR OVC015
TEMPO 0909/0913 1SM -SN OVC008
FM091700 19010KT P6SM VCSH BKN045 OVC080
FM100000 15010KT P6SM OVC100

Example: see airport list